createdAt,value
2023-01-05T00:01:42.777Z,31.08
2023-01-05T00:04:11.797Z,33.85
2023-01-05T00:06:40.416Z,32.05
2023-01-05T00:09:08.924Z,32.97
2023-01-05T00:11:53.974Z,31.20
2023-01-05T00:14:41.331Z,33.78
2023-01-05T00:17:30.128Z,34.20
2023-01-05T00:20:17.101Z,34.67
2023-01-05T00:22:47.637Z,34.53
2023-01-05T00:25:16.839Z,34.28
2023-01-05T00:27:46.047Z,36.10
2023-01-05T00:30:16.014Z,33.45
2023-01-05T00:32:44.637Z,35.45
2023-01-05T00:35:15.299Z,31.35
2023-01-05T00:37:43.520Z,31.67
2023-01-05T00:40:13.197Z,29.83
2023-01-05T00:42:41.097Z,31.67
2023-01-05T00:45:10.738Z,31.98
2023-01-05T00:47:38.114Z,30.75
2023-01-05T00:50:07.225Z,34.83
2023-01-05T00:52:36.268Z,32.97
2023-01-05T00:55:03.748Z,32.13
2023-01-05T00:57:31.099Z,30.75
2023-01-05T01:00:01.950Z,32.83
2023-01-05T01:02:29.496Z,30.00
2023-01-05T01:04:56.951Z,31.23
2023-01-05T01:07:24.851Z,32.45
2023-01-05T01:09:53.563Z,38.90
2023-01-05T01:12:20.932Z,31.30
2023-01-05T01:14:49.586Z,31.85
2023-01-05T01:17:17.468Z,33.88
2023-01-05T01:19:46.524Z,38.50
2023-01-05T01:22:14.310Z,36.10
2023-01-05T01:24:41.679Z,40.33
2023-01-05T01:27:10.738Z,38.20
2023-01-05T01:29:38.097Z,38.15
2023-01-05T01:32:05.774Z,32.58
2023-01-05T01:34:33.175Z,35.13
2023-01-05T01:39:28.080Z,33.53
2023-01-05T01:41:55.435Z,32.70
2023-01-05T01:44:56.499Z,36.72
2023-01-05T01:47:31.718Z,35.13
2023-01-05T01:50:02.491Z,66.50
2023-01-05T01:52:32.472Z,36.95
2023-01-05T01:55:01.978Z,37.47
2023-01-05T01:57:29.906Z,35.08
2023-01-05T02:00:01.472Z,32.25
2023-01-05T02:02:29.475Z,33.30
2023-01-05T02:07:26.029Z,32.72
2023-01-05T02:09:53.533Z,35.45
2023-01-05T02:12:35.680Z,31.60
2023-01-05T02:15:21.387Z,31.58
2023-01-05T02:18:01.596Z,32.70
2023-01-05T02:20:41.762Z,32.75
2023-01-05T02:23:56.955Z,34.55
2023-01-05T02:27:06.370Z,36.85
2023-01-05T02:30:12.646Z,29.10
2023-01-05T02:32:49.946Z,28.60
2023-01-05T02:35:28.355Z,31.25
2023-01-05T02:38:03.687Z,31.33
2023-01-05T02:40:35.611Z,30.85
2023-01-05T02:43:04.280Z,30.70
2023-01-05T02:45:31.647Z,33.95
2023-01-05T02:48:01.069Z,33.78
2023-01-05T02:50:33.937Z,35.67
2023-01-05T02:53:10.207Z,36.88
2023-01-05T02:55:43.858Z,33.58
2023-01-05T02:58:17.010Z,36.03
2023-01-05T03:00:48.909Z,34.15
2023-01-05T03:03:23.503Z,35.20
2023-01-05T03:05:55.716Z,31.38
2023-01-05T03:08:30.759Z,34.22
2023-01-05T03:11:21.388Z,30.93
2023-01-05T03:13:52.463Z,29.45
2023-01-05T03:16:24.335Z,29.85
2023-01-05T03:19:12.909Z,31.73
2023-01-05T03:21:59.228Z,30.90
2023-01-05T03:24:44.479Z,31.33
2023-01-05T03:27:31.132Z,32.42
2023-01-05T03:30:16.505Z,29.20
2023-01-05T03:33:07.727Z,30.10
2023-01-05T03:35:42.053Z,30.25
2023-01-05T03:38:18.282Z,31.92
2023-01-05T03:40:47.366Z,28.20
2023-01-05T03:43:15.206Z,29.48
2023-01-05T03:45:45.345Z,31.92
2023-01-05T03:48:12.970Z,29.60
2023-01-05T03:50:41.658Z,31.42
2023-01-05T03:53:09.009Z,28.40
2023-01-05T03:55:36.374Z,29.42
2023-01-05T03:58:03.946Z,28.38
2023-01-05T04:00:31.349Z,28.35
2023-01-05T04:02:58.815Z,32.78
2023-01-05T04:05:26.365Z,29.27
2023-01-05T04:07:55.036Z,28.17
2023-01-05T04:10:22.428Z,32.33
2023-01-05T04:12:49.856Z,28.55
2023-01-05T04:15:17.450Z,31.98
2023-01-05T04:17:44.804Z,29.70
2023-01-05T04:20:12.886Z,34.75
2023-01-05T04:25:10.440Z,31.58
2023-01-05T04:27:37.825Z,32.67
2023-01-05T04:30:06.454Z,32.25
2023-01-05T04:32:33.846Z,33.10
2023-01-05T04:35:07.011Z,32.75
2023-01-05T04:37:38.104Z,38.40
2023-01-05T04:40:06.851Z,35.38
2023-01-05T04:42:35.572Z,35.00
2023-01-05T04:45:02.947Z,36.67
2023-01-05T04:47:30.343Z,34.90
2023-01-05T04:49:57.701Z,35.70
2023-01-05T04:52:25.080Z,37.28
2023-01-05T04:54:52.442Z,31.58
2023-01-05T04:57:19.824Z,32.00
2023-01-05T04:59:48.529Z,36.95
2023-01-05T05:02:16.181Z,32.13
2023-01-05T05:04:43.629Z,38.33
2023-01-05T05:07:11.237Z,32.13
2023-01-05T05:09:38.601Z,30.17
2023-01-05T05:12:06.207Z,30.02
2023-01-05T05:14:33.560Z,32.67
2023-01-05T05:17:02.299Z,34.97
2023-01-05T05:19:29.636Z,34.65
2023-01-05T05:21:56.993Z,34.17
2023-01-05T05:24:24.409Z,29.92
2023-01-05T05:26:51.779Z,33.80
2023-01-05T05:29:19.156Z,30.00
2023-01-05T05:31:46.548Z,28.23
2023-01-05T05:34:15.358Z,33.05
2023-01-05T05:36:43.662Z,42.60
2023-01-05T05:39:13.586Z,31.90
2023-01-05T05:41:41.053Z,33.10
2023-01-05T05:44:08.714Z,33.17
2023-01-05T05:46:36.367Z,33.70
2023-01-05T05:49:04.701Z,38.83
2023-01-05T05:51:33.551Z,34.47
2023-01-05T05:54:00.953Z,34.38
2023-01-05T05:56:28.309Z,35.50
2023-01-05T05:59:01.043Z,37.05
2023-01-05T06:01:29.304Z,38.95
2023-01-05T06:03:56.897Z,34.85
2023-01-05T06:06:24.371Z,34.92
2023-01-05T06:08:53.060Z,37.05
2023-01-05T06:11:20.454Z,32.60
2023-01-05T06:13:49.333Z,32.75
2023-01-05T06:16:16.900Z,29.63
2023-01-05T06:18:44.303Z,30.08
2023-01-05T06:21:11.727Z,30.65
2023-01-05T06:23:39.103Z,29.05
2023-01-05T06:26:07.839Z,34.78
2023-01-05T06:28:35.190Z,28.58
2023-01-05T06:31:02.607Z,31.52
2023-01-05T06:33:30.204Z,44.28
2023-01-05T06:35:58.694Z,28.17
2023-01-05T06:38:27.274Z,30.20
2023-01-05T06:40:54.653Z,31.83
2023-01-05T06:43:24.552Z,29.48
2023-01-05T06:45:52.893Z,31.63
2023-01-05T06:48:20.364Z,33.05
2023-01-05T06:50:47.817Z,30.80
2023-01-05T06:53:15.313Z,29.23
2023-01-05T06:55:42.716Z,31.25
2023-01-05T06:58:10.103Z,33.92
2023-01-05T07:00:38.909Z,32.70
2023-01-05T07:03:07.186Z,32.58
2023-01-05T07:05:34.626Z,32.30
2023-01-05T07:08:01.990Z,32.35
2023-01-05T07:10:30.212Z,29.23
2023-01-05T07:12:58.783Z,41.17
2023-01-05T07:15:26.193Z,31.45
2023-01-05T07:17:54.872Z,33.10
2023-01-05T07:20:22.260Z,30.98
2023-01-05T07:22:49.658Z,33.13
2023-01-05T07:25:17.164Z,30.08
2023-01-05T07:27:44.644Z,33.53
2023-01-05T07:30:13.255Z,30.30
2023-01-05T07:32:40.638Z,30.20
2023-01-05T07:35:10.285Z,30.77
2023-01-05T07:37:37.668Z,33.40
2023-01-05T07:40:06.106Z,30.83
2023-01-05T07:42:33.930Z,29.98
2023-01-05T07:45:01.976Z,30.83
2023-01-05T07:47:29.338Z,30.50
2023-01-05T07:49:56.686Z,31.13
2023-01-05T07:52:25.691Z,31.80
2023-01-05T07:54:53.066Z,29.92
2023-01-05T07:57:20.452Z,30.90
2023-01-05T07:59:47.809Z,39.72
2023-01-05T08:02:15.316Z,36.58
2023-01-05T08:04:43.118Z,60.78
2023-01-05T08:07:11.478Z,37.05
2023-01-05T08:09:58.347Z,38.17
2023-01-05T08:12:25.753Z,39.80
2023-01-05T08:14:53.129Z,38.00
2023-01-05T08:17:20.562Z,38.70
2023-01-05T08:19:47.967Z,36.40
2023-01-05T08:22:15.352Z,41.90
2023-01-05T08:24:44.102Z,37.38
2023-01-05T08:27:11.554Z,35.97
2023-01-05T08:29:39.003Z,47.00
2023-01-05T08:32:06.701Z,39.40
2023-01-05T08:34:35.068Z,40.15
2023-01-05T08:37:02.580Z,35.95
2023-01-05T08:39:29.978Z,37.40
2023-01-05T08:42:02.481Z,35.53
2023-01-05T08:44:30.383Z,37.08
2023-01-05T08:46:57.891Z,39.22
2023-01-05T08:49:25.291Z,37.83
2023-01-05T08:51:52.684Z,39.25
2023-01-05T08:54:20.042Z,39.05
2023-01-05T08:56:50.445Z,41.20
2023-01-05T08:59:19.653Z,41.60
2023-01-05T09:01:47.136Z,37.97
2023-01-05T09:04:14.598Z,39.38
2023-01-05T09:06:42.237Z,40.85
2023-01-05T09:09:10.356Z,45.90
2023-01-05T09:11:37.912Z,43.97
2023-01-05T09:14:05.275Z,39.33
2023-01-05T09:17:05.736Z,39.97
2023-01-05T09:19:23.360Z,37.28
2023-01-05T09:21:52.084Z,39.40
2023-01-05T09:24:20.009Z,36.65
2023-01-05T09:26:47.477Z,40.13
2023-01-05T09:29:15.182Z,36.42
2023-01-05T09:31:44.697Z,44.28
2023-01-05T09:34:12.180Z,38.55
2023-01-05T09:36:39.872Z,49.03
2023-01-05T09:39:07.754Z,43.20
2023-01-05T09:41:39.509Z,42.97
2023-01-05T09:44:15.480Z,43.78
2023-01-05T09:46:49.990Z,41.83
2023-01-05T09:49:22.221Z,42.67
2023-01-05T09:51:52.107Z,41.65
2023-01-05T09:54:20.197Z,40.00
2023-01-05T09:59:38.270Z,37.63
2023-01-05T10:02:18.065Z,37.50
2023-01-05T10:04:47.659Z,40.90
2023-01-05T10:07:21.934Z,39.45
2023-01-05T10:09:49.822Z,34.85
2023-01-05T10:12:40.875Z,34.72
2023-01-05T10:15:11.293Z,40.20
2023-01-05T10:17:43.694Z,33.92
2023-01-05T10:20:17.052Z,33.78
2023-01-05T10:22:55.179Z,33.20
2023-01-05T10:25:30.355Z,34.90
2023-01-05T10:28:08.922Z,32.95
2023-01-05T10:30:48.864Z,35.47
2023-01-05T10:33:39.574Z,33.45
2023-01-05T10:36:41.312Z,32.63
2023-01-05T10:39:20.447Z,41.70
2023-01-05T10:41:56.870Z,35.58
2023-01-05T10:44:53.018Z,33.72
2023-01-05T10:47:22.504Z,39.92
2023-01-05T10:49:51.839Z,37.30
2023-01-05T10:52:22.096Z,39.25
2023-01-05T10:54:52.970Z,38.17
2023-01-05T10:57:41.085Z,41.83
2023-01-05T11:00:19.779Z,47.92
2023-01-05T11:02:50.243Z,47.38
2023-01-05T11:05:29.000Z,44.75
2023-01-05T11:07:59.274Z,44.03
2023-01-05T11:10:30.787Z,40.67
2023-01-05T11:13:05.127Z,42.85
2023-01-05T11:15:36.159Z,41.17
2023-01-05T11:18:04.143Z,43.15
2023-01-05T11:20:32.842Z,39.42
2023-01-05T11:23:00.229Z,39.63
2023-01-05T11:25:29.524Z,44.22
2023-01-05T11:28:07.081Z,38.25
2023-01-05T11:30:35.147Z,41.10
2023-01-05T11:33:02.754Z,36.17
2023-01-05T11:35:35.052Z,36.30
2023-01-05T11:38:02.461Z,37.30
2023-01-05T11:40:32.441Z,32.63
2023-01-05T11:43:00.729Z,33.08
2023-01-05T11:45:35.070Z,32.30
2023-01-05T11:48:08.579Z,36.78
2023-01-05T11:50:47.206Z,38.53
2023-01-05T11:53:25.580Z,37.03
2023-01-05T11:56:01.243Z,35.25
2023-01-05T11:58:33.039Z,33.20
2023-01-05T12:01:31.794Z,38.67
2023-01-05T12:04:07.099Z,35.58
2023-01-05T12:06:52.643Z,35.60
2023-01-05T12:09:32.660Z,38.42
2023-01-05T12:12:14.003Z,35.38
2023-01-05T12:15:05.852Z,36.05
2023-01-05T12:17:44.813Z,33.25
2023-01-05T12:20:33.164Z,33.33
2023-01-05T12:23:35.109Z,35.47
2023-01-05T12:26:11.901Z,32.40
2023-01-05T12:35:28.482Z,63.33
2023-01-05T12:38:12.967Z,34.58
2023-01-05T12:40:59.123Z,36.55
2023-01-05T12:43:42.726Z,37.45
2023-01-05T12:46:19.341Z,36.22
2023-01-05T12:48:53.088Z,33.10
2023-01-05T12:51:25.606Z,32.67
2023-01-05T12:53:57.739Z,35.63
2023-01-05T12:56:31.046Z,36.17
2023-01-05T12:59:10.723Z,35.15
2023-01-05T13:01:43.254Z,35.55
2023-01-05T13:04:34.322Z,38.63
2023-01-05T13:07:10.636Z,37.58
2023-01-05T13:09:39.235Z,41.35
2023-01-05T13:12:12.848Z,40.83
2023-01-05T13:14:49.309Z,39.25
2023-01-05T13:17:25.212Z,38.28
2023-01-05T13:20:05.868Z,39.45
2023-01-05T13:22:36.921Z,40.95
2023-01-05T13:25:07.481Z,39.38
2023-01-05T13:27:36.204Z,41.08
2023-01-05T13:30:05.747Z,47.83
2023-01-05T13:32:56.187Z,40.33
2023-01-05T13:35:41.232Z,42.15
2023-01-05T13:38:27.976Z,39.45
2023-01-05T13:41:08.737Z,40.17
2023-01-05T13:43:57.214Z,39.70
2023-01-05T13:46:37.764Z,40.28
2023-01-05T13:49:29.704Z,41.10
2023-01-05T13:51:58.909Z,49.03
2023-01-05T13:54:49.572Z,41.05
2023-01-05T13:57:24.571Z,47.00
2023-01-05T14:00:05.881Z,39.47
2023-01-05T14:02:38.701Z,45.05
2023-01-05T14:05:16.036Z,51.22
2023-01-05T14:07:43.710Z,50.13
2023-01-05T14:10:22.773Z,52.08
2023-01-05T14:12:54.011Z,999.90
2023-01-05T14:15:42.369Z,999.90
2023-01-05T14:18:10.918Z,999.90
2023-01-05T14:20:46.328Z,999.90
2023-01-05T14:23:50.461Z,999.90
2023-01-05T14:26:17.977Z,999.90
2023-01-05T14:28:49.174Z,999.90
2023-01-05T14:31:48.498Z,999.90
2023-01-05T14:34:19.554Z,999.90
2023-01-05T14:36:59.960Z,999.90
2023-01-05T14:39:31.145Z,999.90
2023-01-05T14:42:03.332Z,999.90
2023-01-05T14:44:34.896Z,999.90
2023-01-05T14:47:05.471Z,999.90
2023-01-05T14:49:37.576Z,999.90
2023-01-05T14:52:07.133Z,999.90
2023-01-05T14:54:37.670Z,999.90
2023-01-05T14:57:35.056Z,999.90
2023-01-05T15:00:07.468Z,999.90
2023-01-05T15:02:47.343Z,999.90
2023-01-05T15:05:18.372Z,999.90
2023-01-05T15:07:55.445Z,999.90
2023-01-05T15:10:49.260Z,999.90
2023-01-05T15:14:08.568Z,999.90
2023-01-05T15:16:56.658Z,999.90
2023-01-05T15:19:43.620Z,999.90
2023-01-05T15:22:38.181Z,999.90
2023-01-05T15:25:23.500Z,999.90
2023-01-05T15:28:29.027Z,999.90
2023-01-05T15:31:20.244Z,999.90
2023-01-05T15:33:53.085Z,999.90
2023-01-05T15:36:29.151Z,999.90
2023-01-05T15:38:57.581Z,999.90
2023-01-05T15:41:28.149Z,999.90
2023-01-05T15:43:56.680Z,999.90
2023-01-05T15:46:30.645Z,999.90
2023-01-05T15:48:58.083Z,999.90
2023-01-05T15:51:28.830Z,999.90
2023-01-05T15:53:58.047Z,999.90
2023-01-05T15:56:31.870Z,999.90
2023-01-05T15:59:00.384Z,999.90
2023-01-05T16:01:29.971Z,999.90
2023-01-05T16:04:09.277Z,999.90
2023-01-05T16:06:39.601Z,999.90
2023-01-05T16:09:12.324Z,999.90
2023-01-05T16:11:42.975Z,999.90
2023-01-05T16:14:15.228Z,999.90
2023-01-05T16:16:54.170Z,999.90
2023-01-05T16:19:28.159Z,999.90
2023-01-05T16:22:01.088Z,999.90
2023-01-05T16:24:34.617Z,999.90
2023-01-05T16:27:04.419Z,999.90
2023-01-05T16:29:37.827Z,999.90
2023-01-05T16:32:06.483Z,999.90
2023-01-05T16:34:33.885Z,999.90
2023-01-05T16:37:05.777Z,999.90
2023-01-05T16:39:36.733Z,999.90
2023-01-05T16:42:24.350Z,999.90
2023-01-05T16:44:55.697Z,999.90
2023-01-05T16:47:35.062Z,999.90
2023-01-05T16:50:30.669Z,999.90
2023-01-05T16:53:08.026Z,999.90
2023-01-05T16:55:37.279Z,999.90
2023-01-05T16:58:06.963Z,999.90
2023-01-05T17:00:38.194Z,999.90
2023-01-05T17:03:28.274Z,999.90
2023-01-05T17:05:56.888Z,999.90
2023-01-05T17:08:27.992Z,999.90
2023-01-05T17:10:57.248Z,999.90
2023-01-05T17:13:28.229Z,999.90
2023-01-05T17:15:55.593Z,999.90
2023-01-05T17:18:25.139Z,999.90
2023-01-05T17:20:54.522Z,999.90
2023-01-05T17:23:26.333Z,999.90
2023-01-05T17:25:55.205Z,999.90
2023-01-05T17:28:24.383Z,999.90
2023-01-05T17:30:52.419Z,999.90
2023-01-05T17:38:20.813Z,999.90
2023-01-05T17:40:50.084Z,999.90
2023-01-05T17:43:18.610Z,999.90
2023-01-05T17:45:46.222Z,999.90
2023-01-05T17:48:15.848Z,999.90
2023-01-05T17:50:43.755Z,999.90
2023-01-05T17:53:12.019Z,999.90
2023-01-05T17:55:40.779Z,999.90
2023-01-05T17:58:11.759Z,999.90
2023-01-05T18:03:21.661Z,999.90
2023-01-05T18:05:51.134Z,999.90
2023-01-05T18:08:19.251Z,999.90
2023-01-05T18:13:19.521Z,999.90
2023-01-05T18:15:52.896Z,999.90
2023-01-05T18:18:21.729Z,999.90
2023-01-05T18:20:51.220Z,999.90
2023-01-05T18:23:19.732Z,999.90
2023-01-05T18:25:47.743Z,999.90
2023-01-05T18:30:45.297Z,999.90
2023-01-05T18:35:48.350Z,999.90
2023-01-05T18:38:16.231Z,999.90
2023-01-05T18:40:48.807Z,999.90
2023-01-05T18:43:17.624Z,999.90
2023-01-05T18:45:48.980Z,999.90
2023-01-05T18:48:16.364Z,999.90
2023-01-05T18:50:49.790Z,999.90
2023-01-05T18:53:17.500Z,999.90
2023-01-05T18:55:44.983Z,999.90
2023-01-05T18:58:13.198Z,999.90
2023-01-05T19:00:42.918Z,999.90
2023-01-05T19:03:10.985Z,999.90
2023-01-05T19:08:08.655Z,999.90
2023-01-05T19:10:36.129Z,999.90
2023-01-05T19:13:06.961Z,999.90
2023-01-05T19:15:35.156Z,999.90
2023-01-05T19:18:05.923Z,999.90
2023-01-05T19:20:33.334Z,999.90
2023-01-05T19:23:01.136Z,999.90
2023-01-05T19:25:29.054Z,999.90
2023-01-05T19:27:56.545Z,999.90
2023-01-05T19:30:25.685Z,999.90
2023-01-05T19:32:53.150Z,999.90
2023-01-05T19:35:22.615Z,999.90
2023-01-05T19:37:50.045Z,999.90
2023-01-05T19:40:17.594Z,999.90
2023-01-05T19:42:45.191Z,999.90
2023-01-05T19:45:12.626Z,999.90
2023-01-05T19:47:41.367Z,999.90
2023-01-05T19:50:10.583Z,999.90
2023-01-05T19:52:40.110Z,999.90
2023-01-05T19:55:10.315Z,999.90
2023-01-05T19:57:37.842Z,999.90
2023-01-05T20:00:07.350Z,999.90
2023-01-05T20:02:34.799Z,999.90
2023-01-05T20:05:02.311Z,999.90
2023-01-05T20:07:29.682Z,999.90
2023-01-05T20:09:58.453Z,999.90
2023-01-05T20:12:25.834Z,999.90
2023-01-05T20:14:56.950Z,999.90
2023-01-05T20:17:24.361Z,999.90
2023-01-05T20:19:51.760Z,999.90
2023-01-05T20:22:19.249Z,999.90
2023-01-05T20:24:46.646Z,999.90
2023-01-05T20:27:16.704Z,999.90
2023-01-05T20:29:44.190Z,999.90
2023-01-05T20:32:14.063Z,999.90
2023-01-05T20:34:43.695Z,999.90
2023-01-05T20:37:11.619Z,999.90
2023-01-05T20:39:40.567Z,999.90
2023-01-05T20:42:10.491Z,999.90
2023-01-05T20:44:41.411Z,999.90
2023-01-05T20:47:10.215Z,999.90
2023-01-05T20:49:39.228Z,999.90
2023-01-05T20:52:07.834Z,999.90
2023-01-05T20:54:35.626Z,999.90
2023-01-05T20:57:03.151Z,999.90
2023-01-05T20:59:32.161Z,999.90
2023-01-05T21:02:02.720Z,999.90
2023-01-05T21:04:32.145Z,999.90
2023-01-05T21:07:01.056Z,999.90
2023-01-05T21:09:29.884Z,999.90
2023-01-05T21:11:57.929Z,999.90
2023-01-05T21:14:25.605Z,999.90
2023-01-05T21:16:54.583Z,999.90
2023-01-05T21:19:24.700Z,999.90
2023-01-05T21:21:58.904Z,999.90
2023-01-05T21:24:26.951Z,999.90
2023-01-05T21:29:25.817Z,999.90
2023-01-05T21:31:55.504Z,999.90
2023-01-05T21:34:24.905Z,999.90
2023-01-05T21:36:52.584Z,999.90
2023-01-05T21:39:22.264Z,999.90
2023-01-05T21:42:08.972Z,999.90
2023-01-05T21:44:36.743Z,999.90
2023-01-05T21:47:05.721Z,999.90
2023-01-05T21:49:35.461Z,999.90
2023-01-05T21:52:20.254Z,999.90
2023-01-05T21:55:05.120Z,999.90
2023-01-05T21:57:32.575Z,999.90
2023-01-05T21:59:59.920Z,999.90
2023-01-05T22:02:29.664Z,999.90
2023-01-05T22:04:58.342Z,999.90
2023-01-05T22:07:25.732Z,999.90
2023-01-05T22:09:53.102Z,999.90
2023-01-05T22:12:20.573Z,999.90
2023-01-05T22:14:47.949Z,999.90
2023-01-05T22:17:15.318Z,999.90
2023-01-05T22:19:42.703Z,999.90
2023-01-05T22:22:11.480Z,999.90
2023-01-05T22:24:39.255Z,999.90
2023-01-05T22:27:06.670Z,999.90
2023-01-05T22:29:34.096Z,999.90
2023-01-05T22:32:02.889Z,999.90
2023-01-05T22:34:30.567Z,999.90
2023-01-05T22:36:58.145Z,999.90
2023-01-05T22:39:26.883Z,999.90
2023-01-05T22:41:54.278Z,999.90
2023-01-05T22:44:21.791Z,999.90
2023-01-05T22:46:49.143Z,999.90
2023-01-05T22:49:16.756Z,999.90
2023-01-05T22:51:44.795Z,999.90
2023-01-05T22:54:12.496Z,999.90
2023-01-05T22:56:41.287Z,999.90
2023-01-05T22:59:08.887Z,999.90
2023-01-05T23:01:39.151Z,999.90
2023-01-05T23:04:08.106Z,999.90
2023-01-05T23:06:36.181Z,999.90
2023-01-05T23:14:03.609Z,999.90
2023-01-05T23:16:31.429Z,999.90
2023-01-05T23:18:59.155Z,999.90
2023-01-05T23:21:27.612Z,999.90
2023-01-05T23:23:57.144Z,999.90
2023-01-05T23:26:26.596Z,999.90
2023-01-05T23:28:54.146Z,999.90
2023-01-05T23:31:25.400Z,999.90
2023-01-05T23:33:53.220Z,999.90
2023-01-05T23:36:21.672Z,999.90
2023-01-05T23:38:49.435Z,999.90
2023-01-05T23:41:18.488Z,999.90
2023-01-05T23:43:46.687Z,999.90
2023-01-05T23:46:16.825Z,999.90
2023-01-05T23:48:45.955Z,999.90
2023-01-05T23:51:16.259Z,999.90
2023-01-05T23:53:45.138Z,999.90
2023-01-05T23:56:14.080Z,999.90
2023-01-05T23:58:42.325Z,999.90
